createdAt,value
2023-05-22T00:00:40.076Z,66.46
2023-05-22T00:01:43.202Z,66.57
2023-05-22T00:02:46.253Z,66.46
2023-05-22T00:03:50.916Z,66.91
2023-05-22T00:04:53.730Z,66.79
2023-05-22T00:06:00.499Z,66.82
2023-05-22T00:07:03.966Z,66.72
2023-05-22T00:08:11.874Z,67.29
2023-05-22T00:09:15.343Z,67.67
2023-05-22T00:10:18.341Z,67.70
2023-05-22T00:11:21.427Z,67.46
2023-05-22T00:12:24.172Z,66.92
2023-05-22T00:13:26.938Z,66.90
2023-05-22T00:14:29.701Z,67.35
2023-05-22T00:15:33.911Z,67.66
2023-05-22T00:16:36.783Z,67.83
2023-05-22T00:17:39.643Z,68.23
2023-05-22T00:18:42.996Z,68.36
2023-05-22T00:19:46.516Z,68.55
2023-05-22T00:20:50.531Z,68.79
2023-05-22T00:21:54.479Z,68.98
2023-05-22T00:22:58.149Z,69.27
2023-05-22T00:24:02.446Z,69.13
2023-05-22T00:25:06.538Z,68.68
2023-05-22T00:26:09.342Z,69.04
2023-05-22T00:27:12.401Z,69.39
2023-05-22T00:28:15.250Z,69.49
2023-05-22T00:29:18.053Z,69.55
2023-05-22T00:30:20.768Z,69.75
2023-05-22T00:31:24.365Z,69.78
2023-05-22T00:32:27.616Z,69.80
2023-05-22T00:33:30.437Z,69.83
2023-05-22T00:34:33.218Z,70.48
2023-05-22T00:35:35.999Z,70.31
2023-05-22T00:36:38.685Z,69.94
2023-05-22T00:37:41.590Z,69.40
2023-05-22T00:38:44.575Z,68.89
2023-05-22T00:39:47.432Z,68.83
2023-05-22T00:40:50.232Z,68.41
2023-05-22T00:41:52.998Z,68.57
2023-05-22T00:42:55.918Z,68.38
2023-05-22T00:43:58.692Z,68.61
2023-05-22T00:45:01.517Z,68.87
2023-05-22T00:46:04.591Z,68.89
2023-05-22T00:47:08.196Z,68.89
2023-05-22T00:48:12.864Z,68.09
2023-05-22T00:49:15.546Z,66.97
2023-05-22T00:50:19.712Z,65.67
2023-05-22T00:51:22.913Z,66.14
2023-05-22T00:52:25.947Z,65.87
2023-05-22T00:53:31.051Z,65.84
2023-05-22T00:54:34.074Z,65.76
2023-05-22T00:55:37.293Z,65.66
2023-05-22T00:56:42.135Z,66.08
2023-05-22T00:57:46.187Z,66.09
2023-05-22T00:58:49.241Z,66.32
2023-05-22T00:59:52.534Z,66.27
2023-05-22T01:00:55.989Z,66.27
2023-05-22T01:01:59.676Z,65.61
2023-05-22T01:03:05.865Z,66.14
2023-05-22T01:04:13.317Z,66.13
2023-05-22T01:05:18.507Z,66.21
2023-05-22T01:06:24.537Z,65.85
2023-05-22T01:07:27.288Z,66.29
2023-05-22T01:08:29.964Z,65.85
2023-05-22T01:09:32.766Z,65.03
2023-05-22T01:10:39.791Z,65.23
2023-05-22T01:11:59.232Z,65.41
2023-05-22T01:13:02.213Z,65.60
2023-05-22T01:14:15.188Z,64.20
2023-05-22T01:15:44.430Z,63.29
2023-05-22T01:17:06.564Z,62.86
2023-05-22T01:18:25.338Z,64.00
2023-05-22T01:20:01.767Z,64.34
2023-05-22T01:21:22.527Z,64.24
2023-05-22T01:22:51.396Z,64.26
2023-05-22T01:24:42.186Z,63.95
2023-05-22T01:25:54.677Z,62.95
2023-05-22T01:27:43.484Z,63.10
2023-05-22T01:29:08.866Z,62.95
2023-05-22T01:30:24.417Z,63.52
2023-05-22T01:31:30.629Z,63.96
2023-05-22T01:32:36.783Z,62.79
2023-05-22T01:33:46.195Z,62.89
2023-05-22T01:34:53.653Z,62.59
2023-05-22T01:36:00.183Z,62.35
2023-05-22T01:37:04.330Z,62.54
2023-05-22T01:38:09.884Z,62.24
2023-05-22T01:39:13.237Z,61.85
2023-05-22T01:40:17.271Z,61.84
2023-05-22T01:41:21.713Z,61.49
2023-05-22T01:42:24.921Z,60.67
2023-05-22T01:43:27.817Z,61.00
2023-05-22T01:44:30.534Z,60.49
2023-05-22T01:45:33.197Z,60.85
2023-05-22T01:46:36.431Z,60.46
2023-05-22T01:47:39.222Z,60.66
2023-05-22T01:48:41.961Z,60.90
2023-05-22T01:49:47.430Z,61.44
2023-05-22T01:50:53.627Z,61.74
2023-05-22T01:52:03.042Z,61.98
2023-05-22T01:53:23.513Z,60.61
2023-05-22T01:54:53.957Z,60.43
2023-05-22T01:56:14.839Z,59.96
2023-05-22T01:57:25.238Z,59.02
2023-05-22T01:58:35.142Z,59.01
2023-05-22T01:59:56.458Z,58.38
2023-05-22T02:01:03.824Z,58.02
2023-05-22T02:02:12.112Z,57.88
2023-05-22T02:03:20.408Z,57.91
2023-05-22T02:04:24.713Z,58.23
2023-05-22T02:05:30.309Z,58.52
2023-05-22T02:06:34.010Z,59.08
2023-05-22T02:07:38.823Z,59.17
2023-05-22T02:08:42.572Z,59.11
2023-05-22T02:09:47.978Z,59.02
2023-05-22T02:10:52.832Z,59.21
2023-05-22T02:11:56.291Z,59.54
2023-05-22T02:12:59.060Z,59.05
2023-05-22T02:14:02.422Z,58.36
2023-05-22T02:15:08.655Z,58.79
2023-05-22T02:16:12.454Z,59.15
2023-05-22T02:17:15.442Z,59.11
2023-05-22T02:18:18.451Z,59.43
2023-05-22T02:19:21.309Z,59.37
2023-05-22T02:20:24.055Z,59.04
2023-05-22T02:21:26.833Z,59.13
2023-05-22T02:22:29.607Z,58.80
2023-05-22T02:23:32.620Z,58.51
2023-05-22T02:24:37.141Z,58.51
2023-05-22T02:25:39.886Z,58.38
2023-05-22T02:26:43.381Z,58.85
2023-05-22T02:27:48.185Z,58.36
2023-05-22T02:28:51.188Z,58.49
2023-05-22T02:29:54.159Z,58.74
2023-05-22T02:30:57.053Z,58.44
2023-05-22T02:31:59.925Z,58.59
2023-05-22T02:33:06.138Z,58.87
2023-05-22T02:34:08.900Z,59.15
2023-05-22T02:35:11.732Z,59.17
2023-05-22T02:36:14.732Z,59.43
2023-05-22T02:37:17.669Z,58.18
2023-05-22T02:38:20.567Z,58.43
2023-05-22T02:39:23.400Z,58.49
2023-05-22T02:40:26.225Z,58.70
2023-05-22T02:41:29.101Z,58.83
2023-05-22T02:42:32.050Z,59.06
2023-05-22T02:43:34.827Z,58.77
2023-05-22T02:44:37.536Z,58.43
2023-05-22T02:45:40.264Z,58.74
2023-05-22T02:46:43.036Z,59.25
2023-05-22T02:47:45.871Z,59.02
2023-05-22T02:48:48.705Z,58.56
2023-05-22T02:49:52.254Z,58.55
2023-05-22T02:50:55.227Z,58.42
2023-05-22T02:51:58.097Z,57.73
2023-05-22T02:53:00.974Z,57.98
2023-05-22T02:54:03.906Z,58.21
2023-05-22T02:55:08.389Z,58.15
2023-05-22T02:56:12.221Z,58.04
2023-05-22T02:57:15.235Z,57.91
2023-05-22T02:58:18.053Z,57.75
2023-05-22T02:59:20.956Z,57.30
2023-05-22T03:00:23.827Z,57.43
2023-05-22T03:01:26.743Z,57.68
2023-05-22T03:02:30.295Z,57.22
2023-05-22T03:03:34.288Z,57.37
2023-05-22T03:04:39.062Z,57.29
2023-05-22T03:05:41.762Z,57.54
2023-05-22T03:06:46.796Z,57.70
2023-05-22T03:07:49.601Z,57.97
2023-05-22T03:08:53.355Z,57.76
2023-05-22T03:09:56.240Z,57.24
2023-05-22T03:11:00.564Z,57.17
2023-05-22T03:12:03.271Z,57.16
2023-05-22T03:13:06.077Z,57.49
2023-05-22T03:14:08.942Z,57.73
2023-05-22T03:15:12.035Z,57.80
2023-05-22T03:16:14.796Z,57.73
2023-05-22T03:17:17.664Z,58.56
2023-05-22T03:18:20.598Z,58.69
2023-05-22T03:19:23.484Z,58.49
2023-05-22T03:20:26.256Z,58.54
2023-05-22T03:21:29.037Z,58.33
2023-05-22T03:22:31.865Z,58.55
2023-05-22T03:23:35.003Z,57.21
2023-05-22T03:24:37.719Z,56.75
2023-05-22T03:25:40.659Z,57.19
2023-05-22T03:26:44.137Z,56.96
2023-05-22T03:27:46.851Z,56.73
2023-05-22T03:28:51.092Z,57.13
2023-05-22T03:29:54.006Z,56.18
2023-05-22T03:30:56.715Z,56.21
2023-05-22T03:32:00.101Z,56.12
2023-05-22T03:33:02.875Z,55.30
2023-05-22T03:34:06.249Z,55.23
2023-05-22T03:35:09.828Z,55.12
2023-05-22T03:36:12.507Z,55.22
2023-05-22T03:37:15.191Z,55.58
2023-05-22T03:38:17.900Z,55.72
2023-05-22T03:39:20.581Z,55.03
2023-05-22T03:40:23.294Z,54.78
2023-05-22T03:41:25.973Z,55.19
2023-05-22T03:42:28.864Z,55.06
2023-05-22T03:43:31.615Z,54.73
2023-05-22T03:44:34.274Z,54.73
2023-05-22T03:45:37.083Z,54.76
2023-05-22T03:46:39.836Z,54.46
2023-05-22T03:47:42.624Z,54.88
2023-05-22T03:48:45.348Z,55.18
2023-05-22T03:49:48.218Z,55.36
2023-05-22T03:50:51.264Z,55.32
2023-05-22T03:51:53.986Z,55.69
2023-05-22T03:52:56.753Z,55.58
2023-05-22T03:53:59.755Z,55.77
2023-05-22T03:55:02.577Z,55.99
2023-05-22T03:56:05.956Z,55.28
2023-05-22T03:57:08.702Z,55.14
2023-05-22T03:58:11.440Z,55.28
2023-05-22T03:59:14.252Z,55.27
2023-05-22T04:00:19.920Z,55.65
2023-05-22T04:01:23.815Z,55.89
2023-05-22T04:02:26.683Z,55.84
2023-05-22T04:03:29.589Z,55.45
2023-05-22T04:04:34.338Z,55.47
2023-05-22T04:05:37.202Z,55.32
2023-05-22T04:06:43.478Z,55.21
2023-05-22T04:07:46.486Z,55.72
2023-05-22T04:08:49.756Z,55.67
2023-05-22T04:09:52.477Z,55.63
2023-05-22T04:10:55.521Z,55.80
2023-05-22T04:11:59.020Z,55.27
2023-05-22T04:13:01.872Z,55.89
2023-05-22T04:14:04.718Z,55.70
2023-05-22T04:15:08.196Z,55.91
2023-05-22T04:16:11.218Z,55.82
2023-05-22T04:17:13.935Z,55.78
2023-05-22T04:18:16.715Z,56.42
2023-05-22T04:19:19.579Z,55.88
2023-05-22T04:20:22.522Z,55.51
2023-05-22T04:21:25.310Z,55.82
2023-05-22T04:22:31.047Z,56.07
2023-05-22T04:23:33.742Z,56.11
2023-05-22T04:24:40.018Z,55.94
2023-05-22T04:25:42.944Z,56.31
2023-05-22T04:26:45.740Z,56.38
2023-05-22T04:27:48.623Z,56.06
2023-05-22T04:28:51.338Z,56.60
2023-05-22T04:29:55.061Z,55.14
2023-05-22T04:30:57.886Z,55.25
2023-05-22T04:32:00.712Z,55.04
2023-05-22T04:33:05.846Z,55.14
2023-05-22T04:34:15.407Z,55.07
2023-05-22T04:35:18.734Z,54.65
2023-05-22T04:36:26.490Z,54.72
2023-05-22T04:37:31.941Z,54.69
2023-05-22T04:38:38.053Z,54.26
2023-05-22T04:39:41.393Z,54.15
2023-05-22T04:40:44.806Z,54.07
2023-05-22T04:41:47.472Z,53.60
2023-05-22T04:42:50.477Z,53.63
2023-05-22T04:43:54.230Z,53.54
2023-05-22T04:44:58.318Z,53.74
2023-05-22T04:46:01.375Z,53.09
2023-05-22T04:47:06.920Z,53.61
2023-05-22T04:48:12.393Z,53.80
2023-05-22T04:49:15.141Z,54.07
2023-05-22T04:50:18.041Z,54.52
2023-05-22T04:51:23.311Z,55.08
2023-05-22T04:52:29.138Z,55.22
2023-05-22T04:53:33.639Z,54.90
2023-05-22T04:54:36.399Z,55.98
2023-05-22T04:55:40.089Z,56.26
2023-05-22T04:56:42.782Z,56.35
2023-05-22T04:57:45.545Z,56.70
2023-05-22T04:58:50.306Z,56.92
2023-05-22T04:59:54.619Z,56.99
2023-05-22T05:00:59.645Z,57.11
2023-05-22T05:02:02.460Z,57.69
2023-05-22T05:03:08.276Z,58.31
2023-05-22T05:04:11.733Z,58.75
2023-05-22T05:05:15.969Z,59.39
2023-05-22T05:06:21.820Z,61.11
2023-05-22T05:07:25.365Z,60.52
2023-05-22T05:08:28.184Z,60.05
2023-05-22T05:09:30.905Z,59.90
2023-05-22T05:10:33.634Z,60.01
2023-05-22T05:11:36.395Z,59.82
2023-05-22T05:12:39.090Z,60.44
2023-05-22T05:13:43.110Z,60.44
2023-05-22T05:14:45.836Z,60.83
2023-05-22T05:15:48.477Z,61.59
2023-05-22T05:16:54.953Z,61.98
2023-05-22T05:17:57.840Z,63.75
2023-05-22T05:19:01.546Z,63.68
2023-05-22T05:20:07.362Z,63.25
2023-05-22T05:21:10.290Z,61.81
2023-05-22T05:22:12.941Z,63.14
2023-05-22T05:23:15.762Z,63.38
2023-05-22T05:24:18.625Z,62.34
2023-05-22T05:25:21.377Z,63.01
2023-05-22T05:26:24.403Z,62.69
2023-05-22T05:27:27.320Z,60.54
2023-05-22T05:28:30.077Z,60.84
2023-05-22T05:29:32.837Z,60.87
2023-05-22T05:30:35.530Z,59.00
2023-05-22T05:31:38.327Z,56.88
2023-05-22T05:32:41.745Z,57.89
2023-05-22T05:33:44.463Z,58.87
2023-05-22T05:34:47.244Z,59.43
2023-05-22T05:35:50.653Z,60.43
2023-05-22T05:36:53.424Z,60.90
2023-05-22T05:37:56.148Z,58.86
2023-05-22T05:38:59.188Z,60.23
2023-05-22T05:40:01.832Z,60.80
2023-05-22T05:41:04.569Z,62.26
2023-05-22T05:42:07.389Z,61.68
2023-05-22T05:43:10.221Z,59.06
2023-05-22T05:44:13.109Z,59.68
2023-05-22T05:45:16.070Z,59.07
2023-05-22T05:46:19.722Z,59.61
2023-05-22T05:47:24.520Z,59.88
2023-05-22T05:48:27.369Z,61.08
2023-05-22T05:49:30.201Z,61.04
2023-05-22T05:50:32.882Z,62.02
2023-05-22T05:51:36.423Z,61.72
2023-05-22T05:52:39.245Z,59.49
2023-05-22T05:53:42.100Z,59.54
2023-05-22T05:54:47.607Z,59.60
2023-05-22T05:55:50.364Z,59.41
2023-05-22T05:56:53.180Z,56.34
2023-05-22T05:57:56.004Z,56.15
2023-05-22T05:58:58.788Z,57.87
2023-05-22T06:00:01.647Z,59.13
2023-05-22T06:01:04.747Z,56.67
2023-05-22T06:02:07.738Z,55.57
2023-05-22T06:03:10.682Z,55.38
2023-05-22T06:04:14.065Z,52.06
2023-05-22T06:05:19.456Z,53.14
2023-05-22T06:06:26.432Z,54.18
2023-05-22T06:07:29.895Z,54.61
2023-05-22T06:08:32.865Z,54.94
2023-05-22T06:09:36.491Z,55.08
2023-05-22T06:10:39.881Z,55.21
2023-05-22T06:11:42.752Z,55.18
2023-05-22T06:12:45.537Z,55.04
2023-05-22T06:13:48.426Z,55.08
2023-05-22T06:14:51.135Z,55.61
2023-05-22T06:15:54.243Z,56.10
2023-05-22T06:16:57.570Z,54.40
2023-05-22T06:18:02.646Z,52.37
2023-05-22T06:19:05.460Z,53.27
2023-05-22T06:20:09.435Z,50.69
2023-05-22T06:21:12.601Z,49.84
2023-05-22T06:22:15.423Z,51.86
2023-05-22T06:23:18.204Z,53.24
2023-05-22T06:24:20.937Z,53.29
2023-05-22T06:25:26.296Z,54.23
2023-05-22T06:26:28.983Z,55.39
2023-05-22T06:27:32.264Z,53.72
2023-05-22T06:28:34.974Z,52.51
2023-05-22T06:29:37.796Z,50.50
2023-05-22T06:30:40.817Z,50.75
2023-05-22T06:31:44.081Z,50.39
2023-05-22T06:32:47.007Z,49.44
2023-05-22T06:33:50.091Z,49.25
2023-05-22T06:34:53.051Z,49.94
2023-05-22T06:35:55.754Z,50.08
2023-05-22T06:36:58.406Z,49.15
2023-05-22T06:38:01.149Z,48.85
2023-05-22T06:39:03.963Z,48.90
2023-05-22T06:40:07.846Z,49.67
2023-05-22T06:41:10.839Z,50.42
2023-05-22T06:42:13.587Z,51.57
2023-05-22T06:43:16.579Z,50.31
2023-05-22T06:44:19.287Z,49.79
2023-05-22T06:45:22.110Z,47.50
2023-05-22T06:46:26.153Z,48.41
2023-05-22T06:47:29.382Z,49.71
2023-05-22T06:48:35.457Z,46.99
2023-05-22T06:49:38.034Z,45.47
2023-05-22T06:50:41.110Z,46.59
2023-05-22T06:51:44.272Z,45.48
2023-05-22T06:52:47.039Z,44.76
2023-05-22T06:53:49.646Z,45.42
2023-05-22T06:54:52.752Z,46.00
2023-05-22T06:55:56.019Z,46.32
2023-05-22T06:56:59.691Z,46.82
2023-05-22T06:58:02.543Z,47.73
2023-05-22T06:59:06.325Z,48.84
2023-05-22T07:00:12.155Z,49.73
2023-05-22T07:01:14.948Z,49.11
2023-05-22T07:02:17.656Z,47.63
2023-05-22T07:03:20.513Z,47.08
2023-05-22T07:04:23.297Z,47.15
2023-05-22T07:05:26.140Z,45.03
2023-05-22T07:06:29.336Z,45.29
2023-05-22T07:07:32.303Z,45.75
2023-05-22T07:08:35.159Z,46.42
2023-05-22T07:09:37.993Z,47.82
2023-05-22T07:10:41.427Z,47.35
2023-05-22T07:11:44.412Z,49.96
2023-05-22T07:12:47.188Z,50.75
2023-05-22T07:13:49.922Z,50.22
2023-05-22T07:14:53.379Z,48.53
2023-05-22T07:15:56.188Z,48.59
2023-05-22T07:16:59.031Z,48.86
2023-05-22T07:18:02.078Z,49.91
2023-05-22T07:19:04.995Z,50.47
2023-05-22T07:20:10.939Z,52.09
2023-05-22T07:21:13.553Z,52.89
2023-05-22T07:22:16.408Z,53.52
2023-05-22T07:23:19.043Z,53.27
2023-05-22T07:24:21.798Z,56.12
2023-05-22T07:25:24.546Z,56.02
2023-05-22T07:26:30.032Z,56.13
2023-05-22T07:27:32.895Z,55.49
2023-05-22T07:28:36.252Z,55.64
2023-05-22T07:29:39.127Z,55.79
2023-05-22T07:30:42.323Z,55.01
2023-05-22T07:31:45.088Z,57.22
2023-05-22T07:32:48.863Z,57.14
2023-05-22T07:33:51.561Z,59.10
2023-05-22T07:34:54.312Z,61.35
2023-05-22T07:35:57.441Z,62.82
2023-05-22T07:37:01.638Z,69.31
2023-05-22T07:38:04.444Z,69.99
2023-05-22T07:39:07.176Z,69.23
2023-05-22T07:40:10.485Z,69.49
2023-05-22T07:41:13.706Z,70.08
2023-05-22T07:42:16.521Z,68.13
2023-05-22T07:43:19.247Z,68.10
2023-05-22T07:44:22.029Z,71.35
2023-05-22T07:45:24.754Z,71.88
2023-05-22T07:46:27.595Z,70.71
2023-05-22T07:47:30.425Z,70.47
2023-05-22T07:48:33.267Z,69.36
2023-05-22T07:49:36.503Z,71.21
2023-05-22T07:50:39.263Z,72.60
2023-05-22T07:51:42.146Z,74.82
2023-05-22T07:52:45.114Z,74.60
2023-05-22T07:53:47.860Z,74.59
2023-05-22T07:54:50.964Z,74.88
2023-05-22T07:55:53.655Z,75.28
2023-05-22T07:56:56.647Z,75.35
2023-05-22T07:57:59.363Z,74.48
2023-05-22T07:59:02.039Z,74.21
2023-05-22T08:00:14.146Z,74.86
2023-05-22T08:01:17.322Z,76.72
2023-05-22T08:02:20.096Z,76.00
2023-05-22T08:03:24.260Z,77.60
2023-05-22T08:04:27.940Z,74.65
2023-05-22T08:05:31.011Z,73.20
2023-05-22T08:06:35.413Z,70.58
2023-05-22T08:07:38.508Z,70.46
2023-05-22T08:08:41.291Z,72.83
2023-05-22T08:09:46.360Z,73.21
2023-05-22T08:11:03.005Z,73.80
2023-05-22T08:12:07.886Z,74.41
2023-05-22T08:13:12.697Z,73.68
2023-05-22T08:14:15.621Z,73.85
2023-05-22T08:15:18.380Z,73.94
2023-05-22T08:16:21.382Z,74.25
2023-05-22T08:17:24.186Z,74.24
2023-05-22T08:18:28.625Z,73.77
2023-05-22T08:19:32.207Z,71.59
2023-05-22T08:20:35.005Z,72.33
2023-05-22T08:21:37.984Z,72.65
2023-05-22T08:22:41.990Z,71.22
2023-05-22T08:23:44.739Z,69.26
2023-05-22T08:24:47.571Z,70.33
2023-05-22T08:25:50.470Z,69.55
2023-05-22T08:26:53.296Z,69.45
2023-05-22T08:27:56.106Z,69.08
2023-05-22T08:28:58.894Z,67.93
2023-05-22T08:30:04.155Z,67.35
2023-05-22T08:31:07.176Z,64.46
2023-05-22T08:32:10.163Z,55.47
2023-05-22T08:33:13.132Z,59.33
2023-05-22T08:34:15.989Z,57.99
2023-05-22T08:35:18.702Z,55.82
2023-05-22T08:36:23.528Z,54.08
2023-05-22T08:37:26.540Z,54.94
2023-05-22T08:38:29.316Z,54.16
2023-05-22T08:39:32.031Z,54.20
2023-05-22T08:40:40.589Z,54.10
2023-05-22T08:41:45.453Z,54.58
2023-05-22T08:42:48.732Z,56.08
2023-05-22T08:43:51.630Z,55.27
2023-05-22T08:44:55.664Z,52.90
2023-05-22T08:46:04.114Z,53.25
2023-05-22T08:47:11.563Z,52.53
2023-05-22T08:48:16.697Z,51.71
2023-05-22T08:49:23.676Z,50.27
2023-05-22T08:50:27.533Z,52.85
2023-05-22T08:51:34.440Z,53.37
2023-05-22T08:52:48.175Z,50.27
2023-05-22T08:53:52.735Z,49.88
2023-05-22T08:54:56.160Z,51.09
2023-05-22T08:55:59.877Z,51.87
2023-05-22T08:57:03.189Z,50.72
2023-05-22T08:58:06.525Z,51.75
2023-05-22T08:59:09.375Z,50.39
2023-05-22T09:00:12.769Z,51.36
2023-05-22T09:01:16.667Z,53.41
2023-05-22T09:02:20.308Z,51.72
2023-05-22T09:03:23.764Z,50.98
2023-05-22T09:04:28.623Z,50.91
2023-05-22T09:05:31.732Z,51.49
2023-05-22T09:06:34.546Z,49.21
2023-05-22T09:07:39.426Z,49.16
2023-05-22T09:08:43.001Z,50.53
2023-05-22T09:09:45.863Z,52.24
2023-05-22T09:10:48.872Z,50.33
2023-05-22T09:11:51.582Z,48.18
2023-05-22T09:13:09.124Z,47.28
2023-05-22T09:14:12.675Z,48.64
2023-05-22T09:15:16.980Z,49.19
2023-05-22T09:16:20.921Z,49.19
2023-05-22T09:17:23.652Z,47.71
2023-05-22T09:18:30.319Z,47.81
2023-05-22T09:19:33.218Z,48.35
2023-05-22T09:20:38.630Z,47.75
2023-05-22T09:21:42.228Z,48.75
2023-05-22T09:22:47.673Z,48.89
2023-05-22T09:23:51.208Z,47.78
2023-05-22T09:24:54.602Z,47.17
2023-05-22T09:25:58.858Z,45.75
2023-05-22T09:27:04.377Z,46.14
2023-05-22T09:28:07.651Z,45.52
2023-05-22T09:29:10.434Z,45.92
2023-05-22T09:30:19.459Z,45.31
2023-05-22T09:31:22.345Z,44.74
2023-05-22T09:32:25.446Z,42.60
2023-05-22T09:33:29.762Z,41.76
2023-05-22T09:34:33.105Z,41.34
2023-05-22T09:35:39.335Z,41.28
2023-05-22T09:36:42.746Z,43.22
2023-05-22T09:37:45.568Z,43.16
2023-05-22T09:38:48.263Z,43.86
2023-05-22T09:39:53.287Z,42.61
2023-05-22T09:40:56.806Z,42.14
2023-05-22T09:42:01.735Z,44.74
2023-05-22T09:43:11.561Z,43.39
2023-05-22T09:44:16.323Z,44.60
2023-05-22T09:45:26.701Z,45.74
2023-05-22T09:46:29.892Z,46.27
2023-05-22T09:47:34.417Z,45.29
2023-05-22T09:48:37.535Z,45.46
2023-05-22T09:49:44.946Z,44.56
2023-05-22T09:50:51.359Z,46.67
2023-05-22T09:51:55.522Z,47.27
2023-05-22T09:53:04.154Z,45.47
2023-05-22T09:54:09.569Z,44.50
2023-05-22T09:55:14.364Z,46.04
2023-05-22T09:56:27.469Z,44.77
2023-05-22T09:57:45.609Z,42.77
2023-05-22T09:58:48.348Z,45.60
2023-05-22T09:59:55.188Z,46.13
2023-05-22T10:00:59.467Z,46.10
2023-05-22T10:02:03.104Z,45.77
2023-05-22T10:03:12.277Z,43.77
2023-05-22T10:04:19.020Z,44.57
2023-05-22T10:05:23.155Z,43.43
2023-05-22T10:06:27.564Z,44.16
2023-05-22T10:07:36.647Z,42.68
2023-05-22T10:08:44.822Z,43.90
2023-05-22T10:09:53.005Z,42.39
2023-05-22T10:10:56.355Z,42.76
2023-05-22T10:12:04.390Z,42.85
2023-05-22T10:13:08.013Z,44.63
2023-05-22T10:14:11.304Z,44.43
2023-05-22T10:15:14.331Z,43.76
2023-05-22T10:16:17.607Z,43.81
2023-05-22T10:17:20.742Z,44.36
2023-05-22T10:18:23.810Z,43.66
2023-05-22T10:19:29.205Z,44.08
2023-05-22T10:20:31.956Z,45.04
2023-05-22T10:21:37.197Z,45.69
2023-05-22T10:22:40.650Z,46.45
2023-05-22T10:23:44.648Z,46.44
2023-05-22T10:24:51.059Z,47.19
2023-05-22T10:25:55.280Z,44.71
2023-05-22T10:26:58.332Z,44.78
2023-05-22T10:28:01.363Z,42.10
2023-05-22T10:29:33.876Z,43.61
2023-05-22T10:30:36.598Z,43.77
2023-05-22T10:31:50.818Z,42.85
2023-05-22T10:33:22.136Z,45.14
2023-05-22T10:34:34.995Z,46.11
2023-05-22T10:35:43.826Z,46.98
2023-05-22T10:37:16.553Z,46.50
2023-05-22T10:38:50.835Z,45.70
2023-05-22T10:40:07.755Z,43.87
2023-05-22T10:41:11.708Z,43.20
2023-05-22T10:42:15.046Z,44.28
2023-05-22T10:43:17.864Z,44.51
2023-05-22T10:44:22.475Z,45.27
2023-05-22T10:45:29.386Z,41.28
2023-05-22T10:46:36.631Z,41.30
2023-05-22T10:47:39.607Z,40.92
2023-05-22T10:48:47.827Z,42.07
2023-05-22T10:50:07.695Z,41.62
2023-05-22T10:51:12.733Z,40.95
2023-05-22T10:52:18.663Z,40.49
2023-05-22T10:53:26.216Z,40.56
2023-05-22T10:54:43.390Z,41.76
2023-05-22T10:55:49.586Z,42.21
2023-05-22T10:57:10.474Z,40.92
2023-05-22T10:58:14.012Z,40.07
2023-05-22T10:59:16.759Z,39.75
2023-05-22T11:00:21.578Z,39.89
2023-05-22T11:01:27.756Z,39.28
2023-05-22T11:02:31.967Z,38.10
2023-05-22T11:04:13.158Z,37.54
2023-05-22T11:05:19.003Z,39.46
2023-05-22T11:07:19.133Z,40.59
2023-05-22T11:08:27.510Z,41.08
2023-05-22T11:09:46.043Z,40.69
2023-05-22T11:10:57.401Z,41.39
2023-05-22T11:12:19.681Z,40.51
2023-05-22T11:13:29.058Z,40.18
2023-05-22T11:14:32.444Z,39.75
2023-05-22T11:15:35.637Z,38.17
2023-05-22T11:16:39.228Z,38.59
2023-05-22T11:17:45.305Z,38.45
2023-05-22T11:18:48.365Z,39.15
2023-05-22T11:20:08.404Z,39.64
2023-05-22T11:21:12.271Z,41.28
2023-05-22T11:22:18.072Z,39.55
2023-05-22T11:23:20.935Z,38.36
2023-05-22T11:24:23.917Z,39.00
2023-05-22T11:25:28.688Z,40.63
2023-05-22T11:26:31.543Z,39.81
2023-05-22T11:27:35.696Z,40.08
2023-05-22T11:28:39.098Z,39.63
2023-05-22T11:29:44.945Z,38.82
2023-05-22T11:30:48.169Z,39.38
2023-05-22T11:31:51.108Z,42.35
2023-05-22T11:32:54.152Z,40.48
2023-05-22T11:33:57.066Z,39.49
2023-05-22T11:35:00.565Z,40.09
2023-05-22T11:36:03.659Z,39.68
2023-05-22T11:37:06.560Z,40.19
2023-05-22T11:38:09.848Z,42.63
2023-05-22T11:39:15.428Z,40.39
2023-05-22T11:40:24.825Z,39.17
2023-05-22T11:41:34.152Z,40.27
2023-05-22T11:42:37.928Z,42.91
2023-05-22T11:43:43.336Z,41.97
2023-05-22T11:44:46.546Z,42.11
2023-05-22T11:45:49.397Z,42.42
2023-05-22T11:46:52.564Z,40.85
2023-05-22T11:47:56.029Z,40.25
2023-05-22T11:48:58.925Z,41.70
2023-05-22T11:50:02.141Z,40.40
2023-05-22T11:51:05.409Z,39.18
2023-05-22T11:52:08.746Z,39.19
2023-05-22T11:53:11.988Z,37.78
2023-05-22T11:54:18.315Z,37.76
2023-05-22T11:55:21.115Z,38.95
2023-05-22T11:56:24.140Z,38.42
2023-05-22T11:57:27.401Z,38.39
2023-05-22T11:58:31.032Z,40.60
2023-05-22T11:59:33.965Z,39.43
2023-05-22T12:00:36.947Z,40.57
2023-05-22T12:01:39.704Z,40.86
2023-05-22T12:02:47.946Z,39.87
2023-05-22T12:03:51.323Z,37.89
2023-05-22T12:04:56.073Z,39.33
2023-05-22T12:05:59.425Z,40.16
2023-05-22T12:07:02.310Z,39.12
2023-05-22T12:08:05.322Z,38.75
2023-05-22T12:09:09.072Z,39.83
2023-05-22T12:10:14.251Z,39.41
2023-05-22T12:11:16.943Z,39.29
2023-05-22T12:12:22.475Z,39.56
2023-05-22T12:13:27.436Z,38.94
2023-05-22T12:14:33.904Z,39.15
2023-05-22T12:15:36.639Z,40.12
2023-05-22T12:16:39.822Z,40.36
2023-05-22T12:17:43.289Z,40.66
2023-05-22T12:18:46.456Z,39.47
2023-05-22T12:19:49.252Z,39.17
2023-05-22T12:20:54.817Z,38.57
2023-05-22T12:21:57.581Z,38.89
2023-05-22T12:23:00.428Z,37.78
2023-05-22T12:24:05.906Z,38.06
2023-05-22T12:25:16.661Z,39.13
2023-05-22T12:26:19.663Z,38.21
2023-05-22T12:27:22.549Z,37.93
2023-05-22T12:28:25.597Z,37.14
2023-05-22T12:29:28.425Z,36.86
2023-05-22T12:30:41.274Z,38.98
2023-05-22T12:31:46.975Z,40.08
2023-05-22T12:32:50.857Z,40.57
2023-05-22T12:33:57.163Z,39.79
2023-05-22T12:35:00.234Z,38.81
2023-05-22T12:36:08.229Z,38.78
2023-05-22T12:37:28.405Z,39.55
2023-05-22T12:38:34.018Z,38.79
2023-05-22T12:39:38.279Z,38.82
2023-05-22T12:40:41.242Z,38.48
2023-05-22T12:41:45.743Z,37.14
2023-05-22T12:42:49.046Z,37.04
2023-05-22T12:43:51.865Z,38.00
2023-05-22T12:44:56.229Z,38.56
2023-05-22T12:46:01.026Z,38.37
2023-05-22T12:47:06.262Z,38.26
2023-05-22T12:48:09.561Z,37.05
2023-05-22T12:49:12.576Z,37.39
2023-05-22T12:50:15.488Z,38.49
2023-05-22T12:51:20.073Z,38.34
2023-05-22T12:52:23.322Z,38.71
2023-05-22T12:53:26.078Z,39.26
2023-05-22T12:54:28.846Z,37.55
2023-05-22T12:55:31.636Z,40.08
2023-05-22T12:56:34.494Z,39.06
2023-05-22T12:57:37.182Z,37.34
2023-05-22T12:58:39.957Z,37.42
2023-05-22T12:59:43.922Z,38.30
2023-05-22T13:00:46.767Z,37.13
2023-05-22T13:01:49.605Z,37.90
2023-05-22T13:02:52.519Z,38.42
2023-05-22T13:03:55.770Z,39.53
2023-05-22T13:04:59.323Z,37.45
2023-05-22T13:06:02.177Z,38.17
2023-05-22T13:07:05.296Z,38.94
2023-05-22T13:08:08.075Z,37.42
2023-05-22T13:09:11.138Z,37.91
2023-05-22T13:10:14.095Z,40.48
2023-05-22T13:11:17.061Z,40.61
2023-05-22T13:12:20.025Z,38.29
2023-05-22T13:13:23.150Z,38.17
2023-05-22T13:14:26.088Z,38.75
2023-05-22T13:15:29.798Z,38.97
2023-05-22T13:16:32.891Z,39.30
2023-05-22T13:17:35.771Z,37.60
2023-05-22T13:18:38.574Z,37.41
2023-05-22T13:19:41.449Z,38.73
2023-05-22T13:20:44.347Z,38.89
2023-05-22T13:21:47.393Z,38.86
2023-05-22T13:22:50.493Z,39.67
2023-05-22T13:23:53.429Z,39.26
2023-05-22T13:24:56.334Z,39.71
2023-05-22T13:25:59.145Z,39.25
2023-05-22T13:27:02.155Z,37.17
2023-05-22T13:28:05.093Z,38.14
2023-05-22T13:29:07.848Z,39.47
2023-05-22T13:30:11.112Z,38.96
2023-05-22T13:31:13.889Z,38.70
2023-05-22T13:32:16.814Z,37.06
2023-05-22T13:33:19.619Z,37.22
2023-05-22T13:34:22.619Z,38.87
2023-05-22T13:35:25.816Z,38.75
2023-05-22T13:36:28.746Z,40.12
2023-05-22T13:37:31.971Z,38.99
2023-05-22T13:38:34.729Z,39.49
2023-05-22T13:39:37.988Z,39.84
2023-05-22T13:40:40.731Z,39.01
2023-05-22T13:41:43.481Z,38.24
2023-05-22T13:42:46.382Z,37.27
2023-05-22T13:43:49.259Z,38.33
2023-05-22T13:44:52.156Z,38.67
2023-05-22T13:45:55.069Z,39.81
2023-05-22T13:46:58.222Z,39.26
2023-05-22T13:48:01.136Z,39.90
2023-05-22T13:49:04.026Z,38.90
2023-05-22T13:50:07.702Z,38.69
2023-05-22T13:51:10.409Z,37.11
2023-05-22T13:52:13.214Z,38.14
2023-05-22T13:53:16.027Z,38.99
2023-05-22T13:54:18.824Z,39.12